sensor_id;sensor_type;location;lat;lon;timestamp;pressure;altitude;pressure_sealevel;temperature;humidity
21236;BME280;10775;42.678;26.324;2023-02-10T00:01:39;100826.59;;;-4.84;93.59
21236;BME280;10775;42.678;26.324;2023-02-10T00:04:05;100815.63;;;-4.37;100.00
21236;BME280;10775;42.678;26.324;2023-02-10T00:06:31;100821.94;;;-4.32;100.00
21236;BME280;10775;42.678;26.324;2023-02-10T00:08:59;100819.63;;;-3.94;100.00
21236;BME280;10775;42.678;26.324;2023-02-10T00:11:26;100815.22;;;-4.77;90.94
21236;BME280;10775;42.678;26.324;2023-02-10T00:14:12;100811.16;;;-4.51;98.60
21236;BME280;10775;42.678;26.324;2023-02-10T00:16:38;100810.72;;;-4.10;98.61
21236;BME280;10775;42.678;26.324;2023-02-10T00:19:04;100820.50;;;-4.28;97.19
21236;BME280;10775;42.678;26.324;2023-02-10T00:21:30;100815.03;;;-4.33;93.06
21236;BME280;10775;42.678;26.324;2023-02-10T00:23:55;100817.63;;;-4.21;99.49
21236;BME280;10775;42.678;26.324;2023-02-10T00:26:22;100815.72;;;-4.00;100.00
21236;BME280;10775;42.678;26.324;2023-02-10T00:28:47;100814.28;;;-4.20;96.75
21236;BME280;10775;42.678;26.324;2023-02-10T00:31:15;100804.63;;;-4.24;98.81
21236;BME280;10775;42.678;26.324;2023-02-10T00:33:44;100798.91;;;-3.97;100.00
21236;BME280;10775;42.678;26.324;2023-02-10T00:36:12;100802.81;;;-4.02;98.82
21236;BME280;10775;42.678;26.324;2023-02-10T00:38:39;100795.91;;;-3.79;100.00
21236;BME280;10775;42.678;26.324;2023-02-10T00:41:08;100789.75;;;-3.58;100.00
21236;BME280;10775;42.678;26.324;2023-02-10T00:43:34;100791.38;;;-3.83;100.00
21236;BME280;10775;42.678;26.324;2023-02-10T00:46:00;100792.25;;;-3.83;100.00
21236;BME280;10775;42.678;26.324;2023-02-10T00:48:26;100789.91;;;-3.91;100.00
21236;BME280;10775;42.678;26.324;2023-02-10T00:50:51;100790.28;;;-3.99;100.00
21236;BME280;10775;42.678;26.324;2023-02-10T00:53:17;100780.34;;;-3.70;100.00
21236;BME280;10775;42.678;26.324;2023-02-10T00:55:42;100795.34;;;-3.87;100.00
21236;BME280;10775;42.678;26.324;2023-02-10T00:58:08;100782.50;;;-4.35;94.99
21236;BME280;10775;42.678;26.324;2023-02-10T01:00:33;100775.22;;;-3.82;100.00
21236;BME280;10775;42.678;26.324;2023-02-10T01:02:59;100769.13;;;-3.84;100.00
21236;BME280;10775;42.678;26.324;2023-02-10T01:05:25;100769.59;;;-3.90;100.00
21236;BME280;10775;42.678;26.324;2023-02-10T01:07:51;100776.66;;;-3.74;100.00
21236;BME280;10775;42.678;26.324;2023-02-10T01:10:18;100773.09;;;-3.64;100.00
21236;BME280;10775;42.678;26.324;2023-02-10T01:12:44;100767.69;;;-3.92;100.00
21236;BME280;10775;42.678;26.324;2023-02-10T01:15:10;100764.81;;;-3.85;100.00
21236;BME280;10775;42.678;26.324;2023-02-10T01:17:36;100777.38;;;-4.12;100.00
21236;BME280;10775;42.678;26.324;2023-02-10T01:20:03;100769.28;;;-4.30;98.96
21236;BME280;10775;42.678;26.324;2023-02-10T01:22:32;100763.63;;;-4.49;98.80
21236;BME280;10775;42.678;26.324;2023-02-10T01:24:57;100761.06;;;-4.38;100.00
21236;BME280;10775;42.678;26.324;2023-02-10T01:27:23;100761.41;;;-4.45;100.00
21236;BME280;10775;42.678;26.324;2023-02-10T01:29:49;100757.63;;;-4.38;100.00
21236;BME280;10775;42.678;26.324;2023-02-10T01:32:14;100755.19;;;-4.37;100.00
21236;BME280;10775;42.678;26.324;2023-02-10T01:34:40;100756.81;;;-4.02;100.00
21236;BME280;10775;42.678;26.324;2023-02-10T01:37:05;100760.06;;;-4.16;100.00
21236;BME280;10775;42.678;26.324;2023-02-10T01:39:31;100753.16;;;-3.94;100.00
21236;BME280;10775;42.678;26.324;2023-02-10T01:41:57;100755.81;;;-3.92;100.00
21236;BME280;10775;42.678;26.324;2023-02-10T01:46:48;100741.47;;;-3.90;100.00
21236;BME280;10775;42.678;26.324;2023-02-10T01:49:17;100747.91;;;-3.83;100.00
21236;BME280;10775;42.678;26.324;2023-02-10T01:51:49;100739.16;;;-3.99;100.00
21236;BME280;10775;42.678;26.324;2023-02-10T01:54:20;100742.25;;;-3.91;100.00
21236;BME280;10775;42.678;26.324;2023-02-10T01:56:48;100747.03;;;-3.96;100.00
21236;BME280;10775;42.678;26.324;2023-02-10T01:59:14;100740.31;;;-3.70;100.00
21236;BME280;10775;42.678;26.324;2023-02-10T02:01:40;100748.53;;;-4.34;100.00
21236;BME280;10775;42.678;26.324;2023-02-10T02:04:06;100747.16;;;-4.18;100.00
21236;BME280;10775;42.678;26.324;2023-02-10T02:06:33;100738.19;;;-4.24;100.00
21236;BME280;10775;42.678;26.324;2023-02-10T02:08:59;100727.97;;;-4.24;100.00
21236;BME280;10775;42.678;26.324;2023-02-10T02:12:05;100738.31;;;-4.46;100.00
21236;BME280;10775;42.678;26.324;2023-02-10T02:14:33;100742.53;;;-4.47;100.00
21236;BME280;10775;42.678;26.324;2023-02-10T02:28:39;100732.13;;;-5.07;100.00
21236;BME280;10775;42.678;26.324;2023-02-10T02:34:40;100730.66;;;-4.70;100.00
21236;BME280;10775;42.678;26.324;2023-02-10T02:37:11;100736.84;;;-4.78;100.00
21236;BME280;10775;42.678;26.324;2023-02-10T02:39:41;100719.09;;;-4.88;100.00
21236;BME280;10775;42.678;26.324;2023-02-10T02:42:18;100715.41;;;-4.68;100.00
21236;BME280;10775;42.678;26.324;2023-02-10T02:44:47;100719.34;;;-4.50;100.00
21236;BME280;10775;42.678;26.324;2023-02-10T02:55:58;100725.22;;;-4.63;100.00
21236;BME280;10775;42.678;26.324;2023-02-10T02:58:51;100715.50;;;-5.02;97.71
21236;BME280;10775;42.678;26.324;2023-02-10T03:01:26;100706.38;;;-5.56;98.87
21236;BME280;10775;42.678;26.324;2023-02-10T03:03:55;100715.88;;;-5.87;95.65
21236;BME280;10775;42.678;26.324;2023-02-10T03:06:22;100707.16;;;-5.57;100.00
21236;BME280;10775;42.678;26.324;2023-02-10T03:08:48;100715.06;;;-5.08;100.00
21236;BME280;10775;42.678;26.324;2023-02-10T03:11:14;100716.63;;;-4.98;100.00
21236;BME280;10775;42.678;26.324;2023-02-10T03:13:39;100717.88;;;-4.58;100.00
21236;BME280;10775;42.678;26.324;2023-02-10T03:16:05;100707.00;;;-4.67;100.00
21236;BME280;10775;42.678;26.324;2023-02-10T03:18:31;100704.78;;;-4.51;100.00
21236;BME280;10775;42.678;26.324;2023-02-10T03:20:56;100703.72;;;-4.18;100.00
21236;BME280;10775;42.678;26.324;2023-02-10T03:23:22;100705.41;;;-4.06;100.00
21236;BME280;10775;42.678;26.324;2023-02-10T03:25:48;100701.59;;;-4.00;100.00
21236;BME280;10775;42.678;26.324;2023-02-10T03:28:14;100699.47;;;-3.94;100.00
21236;BME280;10775;42.678;26.324;2023-02-10T03:30:40;100699.88;;;-3.87;100.00
21236;BME280;10775;42.678;26.324;2023-02-10T03:33:12;100696.53;;;-4.35;100.00
21236;BME280;10775;42.678;26.324;2023-02-10T03:35:37;100691.53;;;-4.45;100.00
21236;BME280;10775;42.678;26.324;2023-02-10T03:38:05;100697.22;;;-4.85;100.00
21236;BME280;10775;42.678;26.324;2023-02-10T03:40:31;100695.00;;;-4.68;100.00
21236;BME280;10775;42.678;26.324;2023-02-10T03:42:57;100705.00;;;-4.83;100.00
21236;BME280;10775;42.678;26.324;2023-02-10T03:45:22;100698.53;;;-5.02;100.00
21236;BME280;10775;42.678;26.324;2023-02-10T03:47:48;100708.63;;;-5.03;100.00
21236;BME280;10775;42.678;26.324;2023-02-10T03:50:13;100706.63;;;-4.84;100.00
21236;BME280;10775;42.678;26.324;2023-02-10T03:52:39;100698.66;;;-5.00;100.00
21236;BME280;10775;42.678;26.324;2023-02-10T03:55:06;100703.63;;;-5.02;100.00
21236;BME280;10775;42.678;26.324;2023-02-10T03:57:32;100696.69;;;-4.81;100.00
21236;BME280;10775;42.678;26.324;2023-02-10T03:59:58;100705.00;;;-4.83;100.00
21236;BME280;10775;42.678;26.324;2023-02-10T04:02:24;100698.78;;;-4.75;100.00
21236;BME280;10775;42.678;26.324;2023-02-10T04:04:50;100698.09;;;-4.96;100.00
21236;BME280;10775;42.678;26.324;2023-02-10T04:07:15;100693.88;;;-4.95;100.00
21236;BME280;10775;42.678;26.324;2023-02-10T04:09:41;100696.09;;;-5.00;100.00
21236;BME280;10775;42.678;26.324;2023-02-10T04:12:06;100684.81;;;-4.80;100.00
21236;BME280;10775;42.678;26.324;2023-02-10T04:14:32;100695.22;;;-4.89;100.00
21236;BME280;10775;42.678;26.324;2023-02-10T04:16:57;100696.97;;;-4.99;100.00
21236;BME280;10775;42.678;26.324;2023-02-10T04:19:24;100698.16;;;-5.18;100.00
21236;BME280;10775;42.678;26.324;2023-02-10T04:21:49;100687.84;;;-5.19;100.00
21236;BME280;10775;42.678;26.324;2023-02-10T04:24:15;100680.66;;;-5.02;100.00
21236;BME280;10775;42.678;26.324;2023-02-10T04:26:41;100680.75;;;-5.12;100.00
21236;BME280;10775;42.678;26.324;2023-02-10T04:29:06;100687.81;;;-4.86;100.00
21236;BME280;10775;42.678;26.324;2023-02-10T04:31:32;100697.13;;;-4.74;100.00
21236;BME280;10775;42.678;26.324;2023-02-10T04:33:58;100682.34;;;-5.02;100.00
21236;BME280;10775;42.678;26.324;2023-02-10T04:36:23;100684.91;;;-4.90;100.00
21236;BME280;10775;42.678;26.324;2023-02-10T04:38:49;100693.41;;;-5.02;100.00
21236;BME280;10775;42.678;26.324;2023-02-10T04:41:14;100694.31;;;-5.13;100.00
21236;BME280;10775;42.678;26.324;2023-02-10T04:43:40;100695.41;;;-5.09;100.00
21236;BME280;10775;42.678;26.324;2023-02-10T04:46:06;100694.88;;;-5.05;100.00
21236;BME280;10775;42.678;26.324;2023-02-10T04:48:32;100695.09;;;-4.78;100.00
21236;BME280;10775;42.678;26.324;2023-02-10T04:50:57;100703.72;;;-5.23;100.00
21236;BME280;10775;42.678;26.324;2023-02-10T04:53:23;100697.75;;;-4.89;100.00
21236;BME280;10775;42.678;26.324;2023-02-10T04:55:49;100709.75;;;-4.88;100.00
21236;BME280;10775;42.678;26.324;2023-02-10T04:58:14;100701.88;;;-4.91;100.00
21236;BME280;10775;42.678;26.324;2023-02-10T05:00:40;100698.69;;;-4.88;100.00
21236;BME280;10775;42.678;26.324;2023-02-10T05:03:06;100688.25;;;-4.68;100.00
21236;BME280;10775;42.678;26.324;2023-02-10T05:05:31;100693.69;;;-4.75;100.00
21236;BME280;10775;42.678;26.324;2023-02-10T05:07:57;100691.03;;;-4.65;100.00
21236;BME280;10775;42.678;26.324;2023-02-10T05:10:22;100681.69;;;-4.52;100.00
21236;BME280;10775;42.678;26.324;2023-02-10T05:12:48;100692.78;;;-4.87;100.00
21236;BME280;10775;42.678;26.324;2023-02-10T05:15:14;100688.66;;;-4.73;100.00
21236;BME280;10775;42.678;26.324;2023-02-10T05:17:40;100686.69;;;-4.77;100.00
21236;BME280;10775;42.678;26.324;2023-02-10T05:20:06;100696.44;;;-4.72;100.00
21236;BME280;10775;42.678;26.324;2023-02-10T05:22:35;100705.31;;;-4.90;100.00
21236;BME280;10775;42.678;26.324;2023-02-10T05:25:01;100696.13;;;-4.88;100.00
21236;BME280;10775;42.678;26.324;2023-02-10T05:27:26;100700.09;;;-4.92;100.00
21236;BME280;10775;42.678;26.324;2023-02-10T05:29:52;100696.66;;;-4.92;100.00
21236;BME280;10775;42.678;26.324;2023-02-10T05:32:18;100697.84;;;-5.11;100.00
21236;BME280;10775;42.678;26.324;2023-02-10T05:34:44;100697.19;;;-5.08;100.00
21236;BME280;10775;42.678;26.324;2023-02-10T05:37:09;100704.13;;;-5.29;100.00
21236;BME280;10775;42.678;26.324;2023-02-10T05:39:35;100707.72;;;-5.15;100.00
21236;BME280;10775;42.678;26.324;2023-02-10T05:42:01;100705.19;;;-5.04;100.00
21236;BME280;10775;42.678;26.324;2023-02-10T05:44:28;100701.63;;;-5.06;100.00
21236;BME280;10775;42.678;26.324;2023-02-10T05:46:54;100712.09;;;-4.79;100.00
21236;BME280;10775;42.678;26.324;2023-02-10T05:49:19;100710.13;;;-4.60;100.00
21236;BME280;10775;42.678;26.324;2023-02-10T05:51:46;100708.75;;;-4.31;100.00
21236;BME280;10775;42.678;26.324;2023-02-10T05:54:12;100703.81;;;-4.04;100.00
21236;BME280;10775;42.678;26.324;2023-02-10T05:56:38;100706.00;;;-3.85;100.00
21236;BME280;10775;42.678;26.324;2023-02-10T05:59:04;100704.50;;;-3.70;100.00
21236;BME280;10775;42.678;26.324;2023-02-10T06:01:30;100705.66;;;-3.53;100.00
21236;BME280;10775;42.678;26.324;2023-02-10T06:03:56;100701.56;;;-3.38;100.00
21236;BME280;10775;42.678;26.324;2023-02-10T06:06:22;100706.84;;;-3.23;100.00
21236;BME280;10775;42.678;26.324;2023-02-10T06:08:48;100709.84;;;-3.03;100.00
21236;BME280;10775;42.678;26.324;2023-02-10T06:11:14;100705.47;;;-3.18;100.00
21236;BME280;10775;42.678;26.324;2023-02-10T06:13:39;100712.84;;;-3.22;100.00
21236;BME280;10775;42.678;26.324;2023-02-10T06:16:06;100708.44;;;-3.50;100.00
21236;BME280;10775;42.678;26.324;2023-02-10T06:18:31;100726.25;;;-3.13;100.00
21236;BME280;10775;42.678;26.324;2023-02-10T06:20:57;100719.31;;;-3.28;100.00
21236;BME280;10775;42.678;26.324;2023-02-10T06:23:24;100725.16;;;-3.67;100.00
21236;BME280;10775;42.678;26.324;2023-02-10T06:25:50;100721.66;;;-3.56;100.00
21236;BME280;10775;42.678;26.324;2023-02-10T06:28:23;100718.91;;;-2.95;100.00
21236;BME280;10775;42.678;26.324;2023-02-10T06:30:49;100714.31;;;-2.74;100.00
21236;BME280;10775;42.678;26.324;2023-02-10T06:33:15;100720.28;;;-3.00;98.20
21236;BME280;10775;42.678;26.324;2023-02-10T06:35:41;100721.50;;;-2.69;100.00
21236;BME280;10775;42.678;26.324;2023-02-10T06:38:07;100714.91;;;-2.12;100.00
21236;BME280;10775;42.678;26.324;2023-02-10T06:40:32;100713.81;;;-1.74;100.00
21236;BME280;10775;42.678;26.324;2023-02-10T06:42:58;100711.53;;;-1.69;100.00
21236;BME280;10775;42.678;26.324;2023-02-10T06:45:27;100711.13;;;-1.90;100.00
21236;BME280;10775;42.678;26.324;2023-02-10T06:47:53;100715.38;;;-1.91;100.00
21236;BME280;10775;42.678;26.324;2023-02-10T06:50:19;100714.78;;;-2.00;100.00
21236;BME280;10775;42.678;26.324;2023-02-10T06:52:45;100720.97;;;-1.55;100.00
21236;BME280;10775;42.678;26.324;2023-02-10T06:55:11;100718.03;;;-1.18;100.00
21236;BME280;10775;42.678;26.324;2023-02-10T06:57:37;100715.22;;;-1.08;100.00
21236;BME280;10775;42.678;26.324;2023-02-10T07:00:08;100717.09;;;-0.91;100.00
21236;BME280;10775;42.678;26.324;2023-02-10T07:02:35;100728.69;;;-0.82;100.00
21236;BME280;10775;42.678;26.324;2023-02-10T07:05:03;100723.19;;;-1.03;100.00
21236;BME280;10775;42.678;26.324;2023-02-10T07:07:31;100722.25;;;-1.34;100.00
21236;BME280;10775;42.678;26.324;2023-02-10T07:09:57;100725.56;;;-1.21;100.00
21236;BME280;10775;42.678;26.324;2023-02-10T07:12:23;100723.22;;;-0.89;100.00
21236;BME280;10775;42.678;26.324;2023-02-10T07:14:51;100714.75;;;-0.41;100.00
21236;BME280;10775;42.678;26.324;2023-02-10T07:17:17;100716.00;;;-0.04;100.00
21236;BME280;10775;42.678;26.324;2023-02-10T07:19:43;100726.97;;;0.09;100.00
21236;BME280;10775;42.678;26.324;2023-02-10T07:22:09;100718.78;;;0.16;100.00
21236;BME280;10775;42.678;26.324;2023-02-10T07:24:35;100720.91;;;0.72;100.00
21236;BME280;10775;42.678;26.324;2023-02-10T07:27:01;100719.22;;;1.07;100.00
21236;BME280;10775;42.678;26.324;2023-02-10T07:29:27;100714.69;;;1.19;100.00
21236;BME280;10775;42.678;26.324;2023-02-10T07:31:53;100716.78;;;1.26;100.00
21236;BME280;10775;42.678;26.324;2023-02-10T07:34:19;100727.69;;;1.39;100.00
21236;BME280;10775;42.678;26.324;2023-02-10T07:36:46;100716.72;;;1.61;100.00
21236;BME280;10775;42.678;26.324;2023-02-10T07:39:15;100708.56;;;1.51;100.00
21236;BME280;10775;42.678;26.324;2023-02-10T07:41:41;100704.94;;;1.66;100.00
21236;BME280;10775;42.678;26.324;2023-02-10T07:44:07;100714.22;;;1.62;100.00
21236;BME280;10775;42.678;26.324;2023-02-10T07:46:32;100710.44;;;1.73;100.00
21236;BME280;10775;42.678;26.324;2023-02-10T07:48:58;100709.56;;;1.91;100.00
21236;BME280;10775;42.678;26.324;2023-02-10T07:51:23;100717.06;;;2.04;100.00
21236;BME280;10775;42.678;26.324;2023-02-10T07:53:49;100710.72;;;2.15;100.00
21236;BME280;10775;42.678;26.324;2023-02-10T07:56:15;100710.03;;;2.20;100.00
21236;BME280;10775;42.678;26.324;2023-02-10T07:58:40;100708.84;;;2.31;100.00
21236;BME280;10775;42.678;26.324;2023-02-10T08:01:10;100720.59;;;3.02;100.00
21236;BME280;10775;42.678;26.324;2023-02-10T08:03:36;100708.69;;;4.13;100.00
21236;BME280;10775;42.678;26.324;2023-02-10T08:06:02;100694.81;;;5.08;99.79
21236;BME280;10775;42.678;26.324;2023-02-10T08:08:28;100693.41;;;5.17;93.86
21236;BME280;10775;42.678;26.324;2023-02-10T08:10:53;100701.00;;;5.38;91.54
21236;BME280;10775;42.678;26.324;2023-02-10T08:13:20;100692.31;;;5.91;88.50
21236;BME280;10775;42.678;26.324;2023-02-10T08:15:46;100702.72;;;6.19;87.96
21236;BME280;10775;42.678;26.324;2023-02-10T08:18:12;100704.09;;;6.67;86.47
21236;BME280;10775;42.678;26.324;2023-02-10T08:20:38;100693.91;;;7.06;83.93
21236;BME280;10775;42.678;26.324;2023-02-10T08:23:06;100695.16;;;7.22;82.69
21236;BME280;10775;42.678;26.324;2023-02-10T08:25:32;100698.75;;;7.27;81.82
21236;BME280;10775;42.678;26.324;2023-02-10T08:27:58;100693.41;;;7.21;82.63
21236;BME280;10775;42.678;26.324;2023-02-10T08:30:24;100692.84;;;7.00;82.64
21236;BME280;10775;42.678;26.324;2023-02-10T08:32:50;100691.91;;;6.97;83.42
21236;BME280;10775;42.678;26.324;2023-02-10T08:35:16;100696.44;;;7.05;83.44
21236;BME280;10775;42.678;26.324;2023-02-10T08:37:42;100687.81;;;7.40;82.00
21236;BME280;10775;42.678;26.324;2023-02-10T08:40:08;100694.25;;;7.20;80.23
21236;BME280;10775;42.678;26.324;2023-02-10T08:42:34;100697.09;;;6.96;83.69
21236;BME280;10775;42.678;26.324;2023-02-10T08:44:59;100698.91;;;6.99;83.17
21236;BME280;10775;42.678;26.324;2023-02-10T08:47:25;100694.81;;;7.42;84.01
21236;BME280;10775;42.678;26.324;2023-02-10T08:49:51;100690.97;;;7.62;80.53
21236;BME280;10775;42.678;26.324;2023-02-10T08:52:16;100686.31;;;7.50;79.45
21236;BME280;10775;42.678;26.324;2023-02-10T08:54:42;100694.69;;;7.38;82.32
21236;BME280;10775;42.678;26.324;2023-02-10T08:57:08;100687.16;;;7.14;75.47
21236;BME280;10775;42.678;26.324;2023-02-10T08:59:35;100683.03;;;6.89;82.92
21236;BME280;10775;42.678;26.324;2023-02-10T09:02:00;100695.16;;;6.89;83.94
21236;BME280;10775;42.678;26.324;2023-02-10T09:04:26;100682.38;;;6.96;83.45
21236;BME280;10775;42.678;26.324;2023-02-10T09:06:52;100688.59;;;6.70;80.65
21236;BME280;10775;42.678;26.324;2023-02-10T09:09:20;100688.91;;;6.82;82.29
21236;BME280;10775;42.678;26.324;2023-02-10T09:11:48;100685.19;;;6.72;76.26
21236;BME280;10775;42.678;26.324;2023-02-10T09:14:14;100677.88;;;6.91;82.85
21236;BME280;10775;42.678;26.324;2023-02-10T09:16:40;100681.84;;;7.10;84.72
21236;BME280;10775;42.678;26.324;2023-02-10T09:19:06;100684.03;;;6.94;76.64
21236;BME280;10775;42.678;26.324;2023-02-10T09:21:31;100685.25;;;7.07;78.90
21236;BME280;10775;42.678;26.324;2023-02-10T09:23:57;100680.97;;;7.09;79.61
21236;BME280;10775;42.678;26.324;2023-02-10T09:26:22;100681.00;;;7.11;80.33
21236;BME280;10775;42.678;26.324;2023-02-10T09:28:48;100675.28;;;6.91;75.93
21236;BME280;10775;42.678;26.324;2023-02-10T09:31:15;100681.81;;;6.75;82.43
21236;BME280;10775;42.678;26.324;2023-02-10T09:33:42;100678.44;;;6.47;78.41
21236;BME280;10775;42.678;26.324;2023-02-10T09:36:14;100679.28;;;6.16;81.11
21236;BME280;10775;42.678;26.324;2023-02-10T09:38:40;100670.28;;;6.35;82.71
21236;BME280;10775;42.678;26.324;2023-02-10T09:41:21;100669.47;;;6.68;80.80
21236;BME280;10775;42.678;26.324;2023-02-10T09:54:44;100650.69;;;6.78;73.98
21236;BME280;10775;42.678;26.324;2023-02-10T09:57:20;100654.28;;;6.51;66.25
21236;BME280;10775;42.678;26.324;2023-02-10T09:59:50;100646.03;;;6.36;73.90
21236;BME280;10775;42.678;26.324;2023-02-10T10:02:48;100636.84;;;6.47;73.35
21236;BME280;10775;42.678;26.324;2023-02-10T10:05:59;100632.66;;;6.52;75.33
21236;BME280;10775;42.678;26.324;2023-02-10T10:08:25;100632.94;;;6.31;75.77
21236;BME280;10775;42.678;26.324;2023-02-10T10:10:58;100629.56;;;5.77;70.55
21236;BME280;10775;42.678;26.324;2023-02-10T10:13:28;100624.84;;;5.92;76.94
21236;BME280;10775;42.678;26.324;2023-02-10T10:24:41;100609.44;;;6.28;71.62
21236;BME280;10775;42.678;26.324;2023-02-10T10:29:52;100601.22;;;6.13;71.56
21236;BME280;10775;42.678;26.324;2023-02-10T10:34:54;100596.09;;;6.15;73.86
21236;BME280;10775;42.678;26.324;2023-02-10T10:37:23;100590.19;;;6.52;73.89
21236;BME280;10775;42.678;26.324;2023-02-10T10:40:20;100586.94;;;6.61;70.63
21236;BME280;10775;42.678;26.324;2023-02-10T10:42:49;100580.50;;;6.46;68.39
21236;BME280;10775;42.678;26.324;2023-02-10T10:45:20;100586.00;;;5.95;68.86
21236;BME280;10775;42.678;26.324;2023-02-10T10:47:54;100579.75;;;5.90;67.73
21236;BME280;10775;42.678;26.324;2023-02-10T10:50:22;100584.41;;;6.00;73.03
21236;BME280;10775;42.678;26.324;2023-02-10T10:52:50;100584.03;;;6.17;74.00
21236;BME280;10775;42.678;26.324;2023-02-10T10:55:38;100580.94;;;6.30;71.37
21236;BME280;10775;42.678;26.324;2023-02-10T10:58:30;100576.06;;;6.42;70.07
21236;BME280;10775;42.678;26.324;2023-02-10T11:00:59;100569.56;;;6.58;76.38
21236;BME280;10775;42.678;26.324;2023-02-10T11:03:27;100563.63;;;6.64;77.31
21236;BME280;10775;42.678;26.324;2023-02-10T11:06:14;100563.81;;;6.70;72.42
21236;BME280;10775;42.678;26.324;2023-02-10T11:08:53;100554.97;;;6.98;78.45
21236;BME280;10775;42.678;26.324;2023-02-10T11:11:31;100557.88;;;6.75;77.95
21236;BME280;10775;42.678;26.324;2023-02-10T11:13:57;100557.59;;;7.00;78.05
21236;BME280;10775;42.678;26.324;2023-02-10T11:16:23;100546.81;;;6.84;69.69
21236;BME280;10775;42.678;26.324;2023-02-10T11:19:00;100546.00;;;6.87;74.75
21236;BME280;10775;42.678;26.324;2023-02-10T11:21:39;100545.66;;;7.08;81.93
21236;BME280;10775;42.678;26.324;2023-02-10T11:24:31;100537.72;;;7.02;73.31
21236;BME280;10775;42.678;26.324;2023-02-10T11:27:02;100539.00;;;6.83;77.77
21236;BME280;10775;42.678;26.324;2023-02-10T11:29:33;100528.69;;;6.87;73.96
21236;BME280;10775;42.678;26.324;2023-02-10T11:32:00;100530.38;;;7.23;80.75
21236;BME280;10775;42.678;26.324;2023-02-10T11:34:42;100524.31;;;7.23;78.65
21236;BME280;10775;42.678;26.324;2023-02-10T11:37:38;100519.28;;;7.30;77.58
21236;BME280;10775;42.678;26.324;2023-02-10T11:40:17;100512.97;;;7.19;71.77
21236;BME280;10775;42.678;26.324;2023-02-10T11:42:48;100520.47;;;7.45;80.93
21236;BME280;10775;42.678;26.324;2023-02-10T11:45:20;100521.72;;;7.62;83.25
21236;BME280;10775;42.678;26.324;2023-02-10T11:47:46;100515.75;;;7.68;84.86
21236;BME280;10775;42.678;26.324;2023-02-10T11:50:27;100515.59;;;7.60;81.34
21236;BME280;10775;42.678;26.324;2023-02-10T11:52:53;100513.00;;;7.60;83.11
21236;BME280;10775;42.678;26.324;2023-02-10T11:55:21;100511.53;;;7.74;82.34
21236;BME280;10775;42.678;26.324;2023-02-10T11:58:34;100505.97;;;7.98;89.54
21236;BME280;10775;42.678;26.324;2023-02-10T12:02:01;100496.06;;;7.39;87.53
21236;BME280;10775;42.678;26.324;2023-02-10T12:19:51;100493.97;;;7.64;88.88
21236;BME280;10775;42.678;26.324;2023-02-10T12:34:00;100479.63;;;7.84;83.06
21236;BME280;10775;42.678;26.324;2023-02-10T12:39:14;100471.34;;;7.60;80.09
21236;BME280;10775;42.678;26.324;2023-02-10T12:53:05;100464.13;;;7.06;79.11
21236;BME280;10775;42.678;26.324;2023-02-10T12:55:51;100461.91;;;7.24;86.28
21236;BME280;10775;42.678;26.324;2023-02-10T12:58:40;100464.31;;;7.56;79.57
21236;BME280;10775;42.678;26.324;2023-02-10T13:11:55;100458.34;;;7.21;93.31
21236;BME280;10775;42.678;26.324;2023-02-10T13:14:26;100460.03;;;7.17;88.84
21236;BME280;10775;42.678;26.324;2023-02-10T13:16:55;100449.94;;;7.32;93.03
21236;BME280;10775;42.678;26.324;2023-02-10T13:20:35;100455.22;;;7.35;94.23
21236;BME280;10775;42.678;26.324;2023-02-10T13:22:45;100448.69;;;7.13;81.32
21236;BME280;10775;42.678;26.324;2023-02-10T13:34:18;100456.41;;;7.10;76.55
21236;BME280;10775;42.678;26.324;2023-02-10T13:36:51;100446.72;;;6.67;86.67
21236;BME280;10775;42.678;26.324;2023-02-10T13:39:24;100449.06;;;6.55;76.58
21236;BME280;10775;42.678;26.324;2023-02-10T13:44:43;100449.63;;;6.79;92.69
21236;BME280;10775;42.678;26.324;2023-02-10T13:49:47;100445.91;;;7.06;95.35
21236;BME280;10775;42.678;26.324;2023-02-10T13:52:18;100444.69;;;7.31;93.10
21236;BME280;10775;42.678;26.324;2023-02-10T13:54:57;100447.38;;;7.34;90.98
21236;BME280;10775;42.678;26.324;2023-02-10T13:57:36;100443.53;;;8.03;88.98
21236;BME280;10775;42.678;26.324;2023-02-10T14:00:19;100435.94;;;7.68;91.83
21236;BME280;10775;42.678;26.324;2023-02-10T14:02:59;100440.41;;;7.77;91.30
21236;BME280;10775;42.678;26.324;2023-02-10T14:05:33;100448.44;;;8.35;91.97
21236;BME280;10775;42.678;26.324;2023-02-10T14:08:12;100443.31;;;7.92;83.78
21236;BME280;10775;42.678;26.324;2023-02-10T14:10:38;100441.19;;;7.71;93.88
21236;BME280;10775;42.678;26.324;2023-02-10T14:13:19;100441.59;;;7.49;96.60
21236;BME280;10775;42.678;26.324;2023-02-10T14:15:56;100436.94;;;7.32;93.34
21236;BME280;10775;42.678;26.324;2023-02-10T14:18:27;100439.53;;;7.32;94.79
21236;BME280;10775;42.678;26.324;2023-02-10T14:20:59;100434.44;;;6.97;98.14
21236;BME280;10775;42.678;26.324;2023-02-10T14:23:30;100437.16;;;7.02;92.84
21236;BME280;10775;42.678;26.324;2023-02-10T14:26:02;100444.88;;;6.99;97.13
21236;BME280;10775;42.678;26.324;2023-02-10T14:28:31;100441.47;;;7.02;95.50
21236;BME280;10775;42.678;26.324;2023-02-10T14:31:03;100441.94;;;7.23;96.45
21236;BME280;10775;42.678;26.324;2023-02-10T14:33:32;100442.66;;;7.16;95.98
21236;BME280;10775;42.678;26.324;2023-02-10T14:36:00;100439.72;;;7.01;91.04
21236;BME280;10775;42.678;26.324;2023-02-10T14:38:32;100440.44;;;6.95;96.72
21236;BME280;10775;42.678;26.324;2023-02-10T14:41:00;100447.84;;;6.77;93.86
21236;BME280;10775;42.678;26.324;2023-02-10T14:43:28;100450.78;;;6.90;94.70
21236;BME280;10775;42.678;26.324;2023-02-10T14:45:56;100452.41;;;6.87;97.92